Time;durP1;ratioP1;P1;durP2;ratioP2;P2;SDS_P1;SDS_P2;PMS_P1;PMS_P2;Temp;Humidity;BMP_temperature;BMP_pressure;BME280_temperature;BME280_humidity;BME280_pressure;Samples;Min_cycle;Max_cycle;Signal;HPM_P1;HPM_P2
2021/07/06 00:00:43;;;;;;;6.40;1.67;;;17.80;99.90;;;;;;4974595;28;20435;-82
2021/07/06 00:03:12;;;;;;;2.83;1.73;;;17.70;99.90;;;;;;4975943;28;21053;-80
2021/07/06 00:05:39;;;;;;;2.90;1.30;;;17.70;99.90;;;;;;4975901;28;20914;-80
2021/07/06 00:08:06;;;;;;;3.10;1.83;;;17.70;99.90;;;;;;4979271;28;20463;-81
2021/07/06 00:10:35;;;;;;;3.63;1.30;;;17.70;99.90;;;;;;4995069;28;20426;-79
2021/07/06 00:13:02;;;;;;;3.30;2.00;;;17.60;99.90;;;;;;4994468;28;21040;-80
2021/07/06 00:15:31;;;;;;;2.23;1.23;;;17.60;99.90;;;;;;4995003;28;20402;-81
2021/07/06 00:17:58;;;;;;;1.80;1.43;;;17.60;99.90;;;;;;4989477;28;20463;-79
2021/07/06 00:20:26;;;;;;;2.20;1.63;;;17.60;99.90;;;;;;4975595;28;20419;-79
2021/07/06 00:22:58;;;;;;;3.37;1.63;;;17.60;99.90;;;;;;4977174;28;20473;-79
2021/07/06 00:25:25;;;;;;;5.10;1.80;;;17.60;99.90;;;;;;4993562;28;20430;-81
2021/07/06 00:27:53;;;;;;;5.03;2.00;;;17.60;99.90;;;;;;5009051;28;20549;-80
2021/07/06 00:30:21;;;;;;;2.03;1.37;;;17.60;99.90;;;;;;5009854;28;20792;-79
2021/07/06 00:32:48;;;;;;;2.87;1.40;;;17.60;99.90;;;;;;5008201;28;20470;-78
2021/07/06 00:35:16;;;;;;;3.90;1.90;;;17.60;99.90;;;;;;4993478;28;21014;-80
2021/07/06 00:37:43;;;;;;;6.07;1.80;;;17.60;99.90;;;;;;4993005;28;20454;-78
2021/07/06 00:40:12;;;;;;;2.70;1.30;;;17.60;99.90;;;;;;4994693;28;20426;-80
2021/07/06 00:42:43;;;;;;;6.80;1.83;;;17.60;99.90;;;;;;4993907;28;20477;-78
2021/07/06 00:45:11;;;;;;;4.10;1.63;;;17.60;99.90;;;;;;4994506;28;20504;-80
2021/07/06 00:47:40;;;;;;;2.60;1.90;;;17.60;99.90;;;;;;5005318;28;20489;-80
2021/07/06 00:50:12;;;;;;;2.47;1.60;;;17.60;99.90;;;;;;4975063;28;20420;-80
2021/07/06 00:52:39;;;;;;;3.90;2.20;;;17.50;99.90;;;;;;4974191;28;20478;-79
2021/07/06 00:55:06;;;;;;;3.03;1.83;;;17.60;99.90;;;;;;4994161;28;20493;-78
2021/07/06 00:57:34;;;;;;;3.43;2.63;;;17.50;99.90;;;;;;4993589;28;20466;-80
2021/07/06 01:00:11;;;;;;;4.17;2.00;;;17.50;99.90;;;;;;4994348;28;20422;-79
2021/07/06 01:02:38;;;;;;;4.10;1.70;;;17.50;99.90;;;;;;5012800;28;20459;-80
2021/07/06 01:05:14;;;;;;;6.90;2.03;;;17.50;99.90;;;;;;5013622;28;20790;-80
2021/07/06 01:07:41;;;;;;;2.90;1.80;;;17.40;99.90;;;;;;5014091;28;21121;-77
2021/07/06 01:10:10;;;;;;;5.00;2.57;;;17.40;99.90;;;;;;4978172;28;20431;-79
2021/07/06 01:12:37;;;;;;;3.50;1.90;;;17.40;99.90;;;;;;4988831;28;20479;-80
2021/07/06 01:15:08;;;;;;;3.83;1.60;;;17.40;99.90;;;;;;4989555;28;20423;-77
2021/07/06 01:17:37;;;;;;;4.63;2.00;;;17.40;99.90;;;;;;4972843;28;20461;-79
2021/07/06 01:20:16;;;;;;;4.47;1.80;;;17.30;99.90;;;;;;4974492;28;20514;-80
2021/07/06 01:22:44;;;;;;;5.70;2.03;;;17.30;99.90;;;;;;4974697;28;20817;-78
2021/07/06 01:25:12;;;;;;;5.47;2.60;;;17.30;99.90;;;;;;4993453;28;20453;-78
2021/07/06 01:27:40;;;;;;;9.00;2.10;;;17.30;99.90;;;;;;4991924;28;20465;-78
2021/07/06 01:30:13;;;;;;;3.77;1.63;;;17.30;99.90;;;;;;4993710;28;20453;-78
2021/07/06 01:32:42;;;;;;;5.10;1.70;;;17.30;99.90;;;;;;4978137;28;21031;-81
2021/07/06 01:35:11;;;;;;;6.60;1.70;;;17.20;99.90;;;;;;4976771;28;20423;-77
2021/07/06 01:37:49;;;;;;;2.17;1.83;;;17.30;99.90;;;;;;4973498;28;20459;-78
2021/07/06 01:40:18;;;;;;;8.57;1.90;;;17.30;99.90;;;;;;4973942;28;20940;-80
2021/07/06 01:42:46;;;;;;;5.83;1.43;;;17.30;99.90;;;;;;4973376;28;20462;-79
2021/07/06 01:45:15;;;;;;;4.53;1.57;;;17.30;99.90;;;;;;4987188;28;20525;-79
2021/07/06 01:47:45;;;;;;;1.90;1.40;;;17.30;99.90;;;;;;5004365;28;20840;-78
2021/07/06 01:50:17;;;;;;;3.43;1.43;;;17.20;99.90;;;;;;4972721;28;20415;-79
2021/07/06 01:52:53;;;;;;;9.90;2.60;;;17.30;99.90;;;;;;4973350;28;20471;-78
2021/07/06 01:55:29;;;;;;;6.33;2.23;;;17.30;99.90;;;;;;4974021;28;20819;-78
2021/07/06 01:57:58;;;;;;;3.27;1.43;;;17.30;99.90;;;;;;4973192;28;21028;-81
2021/07/06 02:00:27;;;;;;;2.87;1.47;;;17.20;99.90;;;;;;4972533;28;20420;-80
2021/07/06 02:02:58;;;;;;;2.50;1.83;;;17.30;99.90;;;;;;4986421;28;20478;-79
2021/07/06 02:05:32;;;;;;;5.10;1.40;;;17.40;99.90;;;;;;4991907;28;20438;-79
2021/07/06 02:08:01;;;;;;;5.40;1.80;;;17.30;99.90;;;;;;4992364;28;20829;-80
2021/07/06 02:10:29;;;;;;;4.20;1.60;;;17.40;99.90;;;;;;4993106;28;21007;-79
2021/07/06 02:12:57;;;;;;;6.20;1.97;;;17.40;99.90;;;;;;4992142;28;20470;-79
2021/07/06 02:15:25;;;;;;;2.60;1.43;;;17.40;99.90;;;;;;4992889;28;20828;-80
2021/07/06 02:17:52;;;;;;;3.60;1.50;;;17.40;99.90;;;;;;4983540;28;20518;-80
2021/07/06 02:20:21;;;;;;;3.30;1.30;;;17.40;99.90;;;;;;4973536;28;20545;-79
2021/07/06 02:22:49;;;;;;;5.17;2.20;;;17.50;99.90;;;;;;4971966;28;20823;-78
2021/07/06 02:25:18;;;;;;;4.60;1.60;;;17.50;99.90;;;;;;4972893;28;20415;-80
2021/07/06 02:27:47;;;;;;;2.97;1.40;;;17.50;99.90;;;;;;4987400;28;20558;-80
2021/07/06 02:30:17;;;;;;;3.03;1.73;;;17.40;99.90;;;;;;4973464;28;20825;-79
2021/07/06 02:32:45;;;;;;;7.20;1.73;;;17.40;99.90;;;;;;4987061;28;20471;-81
2021/07/06 02:35:13;;;;;;;3.80;1.60;;;17.40;99.90;;;;;;4988147;28;20426;-80
2021/07/06 02:37:40;;;;;;;2.60;1.40;;;17.40;99.90;;;;;;4971242;28;20470;-81
2021/07/06 02:40:10;;;;;;;7.77;1.70;;;17.40;99.90;;;;;;4991155;28;20496;-80
2021/07/06 02:42:38;;;;;;;2.50;1.60;;;17.40;99.90;;;;;;4991988;28;20477;-80
2021/07/06 02:45:07;;;;;;;2.40;1.93;;;17.40;99.90;;;;;;4998570;28;20453;-77
2021/07/06 02:47:35;;;;;;;10.43;3.03;;;17.40;99.90;;;;;;4991710;28;20457;-81
2021/07/06 02:50:04;;;;;;;8.67;1.90;;;17.40;99.90;;;;;;4992463;28;20920;-79
2021/07/06 02:52:30;;;;;;;5.23;1.80;;;17.40;99.90;;;;;;4991616;28;20479;-78
2021/07/06 02:54:57;;;;;;;4.83;1.80;;;17.30;99.90;;;;;;4974159;28;20458;-78
2021/07/06 02:57:37;;;;;;;7.10;1.90;;;17.30;99.90;;;;;;4972346;28;20461;-79
2021/07/06 03:00:15;;;;;;;3.20;1.63;;;17.30;99.90;;;;;;4973646;28;20430;-77
2021/07/06 03:02:47;;;;;;;4.87;1.50;;;17.30;99.90;;;;;;4984947;28;21129;-80
2021/07/06 03:05:16;;;;;;;3.00;1.70;;;17.30;99.90;;;;;;4996313;28;20838;-82
2021/07/06 03:07:44;;;;;;;4.10;1.70;;;17.30;99.90;;;;;;4995547;28;20457;-79
2021/07/06 03:10:15;;;;;;;4.23;1.83;;;17.30;99.90;;;;;;4996297;28;20425;-79
2021/07/06 03:12:43;;;;;;;3.50;1.53;;;17.30;99.90;;;;;;4995694;28;21017;-78
2021/07/06 03:15:12;;;;;;;4.20;1.90;;;17.30;99.90;;;;;;4996206;28;20425;-81
2021/07/06 03:17:41;;;;;;;4.20;2.70;;;17.30;99.90;;;;;;4988447;28;20481;-79
2021/07/06 03:20:11;;;;;;;3.33;2.20;;;17.30;99.90;;;;;;4976679;28;20455;-80
2021/07/06 03:22:39;;;;;;;2.20;1.80;;;17.30;99.90;;;;;;4974504;28;20466;-77
2021/07/06 03:25:08;;;;;;;5.33;1.80;;;17.30;99.90;;;;;;4976432;28;20431;-79
2021/07/06 03:27:38;;;;;;;6.53;2.17;;;17.30;99.90;;;;;;4975336;28;20474;-78
2021/07/06 03:30:11;;;;;;;2.93;1.77;;;17.30;99.90;;;;;;4976592;28;20427;-79
2021/07/06 03:32:38;;;;;;;4.87;1.57;;;17.30;99.90;;;;;;4983255;28;20999;-78
2021/07/06 03:35:06;;;;;;;6.13;1.63;;;17.30;99.90;;;;;;4976370;28;20983;-81
2021/07/06 03:37:34;;;;;;;3.97;2.20;;;17.30;99.90;;;;;;4974225;28;20467;-79
2021/07/06 03:40:02;;;;;;;3.07;2.00;;;17.30;99.90;;;;;;4994285;28;20496;-78
2021/07/06 03:42:29;;;;;;;2.47;1.70;;;17.30;99.90;;;;;;5010121;28;20461;-82
2021/07/06 03:44:56;;;;;;;3.80;1.87;;;17.30;99.90;;;;;;4995758;28;20796;-78
2021/07/06 03:47:23;;;;;;;4.53;1.57;;;17.30;99.90;;;;;;4994851;28;20470;-80
2021/07/06 03:49:52;;;;;;;1.77;1.43;;;17.30;99.90;;;;;;4995665;28;20417;-80
2021/07/06 03:52:19;;;;;;;2.40;1.70;;;17.30;99.90;;;;;;4994730;28;20461;-79
2021/07/06 03:54:50;;;;;;;3.13;1.87;;;17.40;99.90;;;;;;4978131;28;20435;-79
2021/07/06 03:57:28;;;;;;;6.33;1.80;;;17.40;99.90;;;;;;4975235;28;20490;-78
2021/07/06 04:00:00;;;;;;;2.43;1.80;;;17.40;99.90;;;;;;4975946;28;20817;-80
2021/07/06 04:02:35;;;;;;;6.80;2.37;;;17.40;99.90;;;;;;4975208;28;20474;-80
2021/07/06 04:05:04;;;;;;;3.63;1.87;;;17.50;99.90;;;;;;4975830;28;20458;-78
2021/07/06 04:07:31;;;;;;;3.50;2.03;;;17.50;99.90;;;;;;4975041;28;21095;-81
2021/07/06 04:09:57;;;;;;;2.07;1.87;;;17.50;99.90;;;;;;4993536;28;20446;-78
2021/07/06 04:12:25;;;;;;;7.10;2.33;;;17.60;99.90;;;;;;4993303;28;20549;-79
2021/07/06 04:14:52;;;;;;;5.10;1.87;;;17.70;99.90;;;;;;5010146;28;20438;-80
2021/07/06 04:17:19;;;;;;;5.40;1.80;;;17.70;99.90;;;;;;4994123;28;20470;-79
2021/07/06 04:19:45;;;;;;;2.90;1.70;;;17.70;99.90;;;;;;4993776;28;20437;-78
2021/07/06 04:22:12;;;;;;;4.10;2.20;;;17.70;99.90;;;;;;4993296;28;20473;-80
2021/07/06 04:24:39;;;;;;;3.10;1.73;;;17.80;99.90;;;;;;4992544;28;20449;-77
2021/07/06 04:27:06;;;;;;;2.83;1.73;;;17.80;99.90;;;;;;4976662;28;20466;-79
2021/07/06 04:29:33;;;;;;;2.40;1.80;;;17.70;99.90;;;;;;5009735;28;20426;-79
2021/07/06 04:32:00;;;;;;;2.77;1.60;;;17.70;99.90;;;;;;4994349;28;20466;-79
2021/07/06 04:34:27;;;;;;;2.70;1.60;;;17.80;99.90;;;;;;4991415;28;20542;-80
2021/07/06 04:36:54;;;;;;;1.77;1.40;;;17.80;99.90;;;;;;4973537;28;20471;-79
2021/07/06 04:39:23;;;;;;;4.67;2.27;;;17.90;99.90;;;;;;4975547;28;20447;-79
2021/07/06 04:41:50;;;;;;;2.10;1.87;;;17.90;99.90;;;;;;4973561;28;20457;-78
2021/07/06 04:44:17;;;;;;;2.50;2.10;;;18.00;99.90;;;;;;4980694;28;20430;-81
2021/07/06 04:46:43;;;;;;;1.80;1.57;;;18.00;99.90;;;;;;4994090;28;20474;-79
2021/07/06 04:49:10;;;;;;;2.40;2.20;;;18.10;99.90;;;;;;5009306;28;20430;-79
2021/07/06 04:51:37;;;;;;;3.77;1.80;;;18.20;99.90;;;;;;4993851;28;20465;-82
2021/07/06 04:54:04;;;;;;;4.27;2.10;;;18.40;99.90;;;;;;4994133;28;20513;-79
2021/07/06 04:56:31;;;;;;;8.30;2.10;;;18.60;99.90;;;;;;4992630;28;20533;-81
2021/07/06 04:58:58;;;;;;;2.90;1.90;;;18.70;99.90;;;;;;4994127;28;20426;-79
2021/07/06 05:01:25;;;;;;;2.87;1.97;;;18.80;99.90;;;;;;4993780;28;20458;-81
2021/07/06 05:03:54;;;;;;;2.50;2.30;;;18.80;99.90;;;;;;4996843;28;20492;-79
2021/07/06 05:06:21;;;;;;;1.57;1.43;;;18.90;99.90;;;;;;4974150;28;20435;-81
2021/07/06 05:08:48;;;;;;;2.63;1.57;;;18.90;99.90;;;;;;4973837;28;20449;-80
2021/07/06 05:11:16;;;;;;;3.20;2.20;;;18.90;99.90;;;;;;4974326;28;20455;-80
2021/07/06 05:13:43;;;;;;;1.73;1.60;;;18.90;99.90;;;;;;4972635;28;20484;-80
2021/07/06 05:16:11;;;;;;;2.27;1.80;;;19.00;99.90;;;;;;4979101;28;20443;-77
2021/07/06 05:18:38;;;;;;;3.73;2.27;;;19.00;99.90;;;;;;4993210;28;20454;-80
2021/07/06 05:21:05;;;;;;;2.57;1.30;;;19.00;99.90;;;;;;4992626;28;20941;-82
2021/07/06 05:23:32;;;;;;;3.13;1.80;;;19.10;99.90;;;;;;4984929;28;20485;-81
2021/07/06 05:25:59;;;;;;;2.43;2.10;;;19.00;99.90;;;;;;4973167;28;20453;-81
2021/07/06 05:28:26;;;;;;;2.87;2.00;;;18.90;99.90;;;;;;4972696;28;20467;-80
2021/07/06 05:30:57;;;;;;;2.27;1.90;;;18.90;99.90;;;;;;4975631;28;20448;-81
2021/07/06 05:33:26;;;;;;;2.60;2.20;;;18.90;99.90;;;;;;4994390;28;20477;-83
2021/07/06 05:35:53;;;;;;;3.27;1.80;;;18.90;99.90;;;;;;4993141;28;20435;-82
2021/07/06 05:38:20;;;;;;;1.60;1.50;;;18.90;99.90;;;;;;4988671;28;20498;-82
2021/07/06 05:41:03;;;;;;;1.40;1.30;;;18.90;99.90;;;;;;4975309;28;20429;-81
2021/07/06 05:43:35;;;;;;;2.43;1.40;;;18.90;99.90;;;;;;4973268;28;20471;-82
2021/07/06 05:46:02;;;;;;;1.53;1.20;;;18.90;99.90;;;;;;4983371;28;21016;-83
2021/07/06 05:48:29;;;;;;;1.00;0.83;;;18.80;99.90;;;;;;5003375;28;20560;-82
2021/07/06 05:50:58;;;;;;;1.50;1.23;;;18.80;99.90;;;;;;5014251;28;21051;-82
2021/07/06 05:53:24;;;;;;;1.60;1.30;;;18.80;99.90;;;;;;5007474;28;20508;-81
2021/07/06 05:55:51;;;;;;;1.90;1.50;;;18.70;99.90;;;;;;4994283;28;20781;-83
2021/07/06 05:58:18;;;;;;;1.10;1.00;;;18.70;99.90;;;;;;4993545;28;20469;-82
2021/07/06 06:00:45;;;;;;;2.53;1.07;;;18.70;99.90;;;;;;4994365;28;20457;-84
2021/07/06 06:03:12;;;;;;;1.30;1.20;;;18.60;99.90;;;;;;4993008;28;20984;-82
2021/07/06 06:05:40;;;;;;;4.50;1.30;;;18.60;99.90;;;;;;4981616;28;20519;-83
2021/07/06 06:08:08;;;;;;;1.50;1.20;;;18.60;99.90;;;;;;4977502;28;20574;-82
2021/07/06 06:10:36;;;;;;;3.30;1.40;;;18.60;99.90;;;;;;4999760;28;20453;-81
2021/07/06 06:13:03;;;;;;;2.63;1.00;;;18.60;99.90;;;;;;4985675;28;20478;-83
2021/07/06 06:15:30;;;;;;;2.10;1.30;;;18.60;99.90;;;;;;4974978;28;20976;-83
2021/07/06 06:17:58;;;;;;;6.63;0.90;;;18.70;99.90;;;;;;4995599;28;20549;-82
2021/07/06 06:20:24;;;;;;;6.30;1.10;;;18.70;99.90;;;;;;4994149;28;20421;-80
2021/07/06 06:22:52;;;;;;;2.13;1.00;;;18.70;99.90;;;;;;4992613;28;20463;-82
2021/07/06 06:25:18;;;;;;;2.97;1.27;;;18.60;99.90;;;;;;4974313;28;20428;-82
2021/07/06 06:27:48;;;;;;;1.77;1.43;;;18.60;99.90;;;;;;4974107;28;20456;-83
2021/07/06 06:30:17;;;;;;;1.70;1.43;;;18.50;99.90;;;;;;4991193;28;20432;-83
2021/07/06 06:32:44;;;;;;;3.30;1.50;;;18.50;99.90;;;;;;4988510;28;20510;-83
2021/07/06 06:35:11;;;;;;;2.60;2.00;;;18.50;99.90;;;;;;5003302;28;20493;-82
2021/07/06 06:37:38;;;;;;;2.10;1.50;;;18.40;99.90;;;;;;4973554;28;20581;-84
2021/07/06 06:40:07;;;;;;;2.17;1.20;;;18.40;99.90;;;;;;5014477;28;20487;-82
2021/07/06 06:42:35;;;;;;;1.63;1.10;;;18.30;99.90;;;;;;4973113;28;20494;-83
2021/07/06 06:45:04;;;;;;;3.27;1.40;;;18.20;99.90;;;;;;4975050;28;21049;-83
2021/07/06 06:47:32;;;;;;;1.13;0.90;;;18.20;99.90;;;;;;4988352;28;20878;-84
2021/07/06 06:49:59;;;;;;;1.30;0.97;;;18.20;99.90;;;;;;5011052;28;20456;-82
2021/07/06 06:52:26;;;;;;;1.03;0.63;;;18.10;99.90;;;;;;4996575;28;20553;-81
2021/07/06 06:54:53;;;;;;;1.30;0.77;;;18.20;99.90;;;;;;5005020;28;20832;-83
2021/07/06 06:57:24;;;;;;;4.50;1.00;;;18.10;99.90;;;;;;4972558;28;20462;-80
2021/07/06 06:59:51;;;;;;;1.10;0.40;;;18.20;99.90;;;;;;4973214;28;20984;-81
2021/07/06 07:02:21;;;;;;;1.60;0.60;;;18.20;99.90;;;;;;4987407;28;20526;-82
2021/07/06 07:04:53;;;;;;;1.93;0.80;;;18.20;99.90;;;;;;4973335;28;20422;-81
2021/07/06 07:07:22;;;;;;;6.47;0.83;;;18.20;99.90;;;;;;4972630;28;20470;-83
2021/07/06 07:09:51;;;;;;;1.70;0.70;;;18.20;99.90;;;;;;4972057;28;20447;-82
2021/07/06 07:12:18;;;;;;;1.33;0.80;;;18.20;99.90;;;;;;4955263;28;21023;-81
2021/07/06 07:14:45;;;;;;;2.53;0.83;;;18.20;99.90;;;;;;4973027;28;20576;-82
2021/07/06 07:17:12;;;;;;;1.27;0.67;;;18.30;99.90;;;;;;4987710;28;20467;-81
2021/07/06 07:19:40;;;;;;;1.27;0.70;;;18.40;99.90;;;;;;4988248;28;20848;-80
2021/07/06 07:22:08;;;;;;;1.53;0.80;;;18.30;99.90;;;;;;4972344;28;20470;-81
2021/07/06 07:24:36;;;;;;;1.73;1.33;;;18.40;99.90;;;;;;4999881;28;20533;-81
2021/07/06 07:27:08;;;;;;;1.50;0.57;;;18.30;99.90;;;;;;4965853;28;20980;-79
2021/07/06 07:29:35;;;;;;;1.00;0.90;;;18.40;99.90;;;;;;4991804;28;20793;-80
2021/07/06 07:32:05;;;;;;;3.37;1.20;;;18.40;99.90;;;;;;4987365;28;20458;-80
2021/07/06 07:34:38;;;;;;;1.20;0.80;;;18.40;99.90;;;;;;4989289;28;20875;-79
2021/07/06 07:37:05;;;;;;;0.97;0.77;;;18.40;99.90;;;;;;4991327;28;20455;-81
2021/07/06 07:39:33;;;;;;;0.90;0.90;;;18.40;99.90;;;;;;4977728;28;20958;-81
2021/07/06 07:42:03;;;;;;;2.00;1.10;;;18.30;99.90;;;;;;4972049;28;20464;-81
2021/07/06 07:44:31;;;;;;;3.17;1.00;;;18.30;99.90;;;;;;4979088;28;20496;-82
2021/07/06 07:46:58;;;;;;;1.63;0.90;;;18.30;99.90;;;;;;5000570;28;20549;-80
2021/07/06 07:49:25;;;;;;;1.20;1.10;;;18.30;99.90;;;;;;4994527;28;20914;-80
2021/07/06 07:51:52;;;;;;;5.43;1.77;;;18.30;99.90;;;;;;4976937;28;20902;-81
2021/07/06 07:54:18;;;;;;;2.13;1.00;;;18.30;99.90;;;;;;4977372;28;20473;-81
2021/07/06 07:56:45;;;;;;;1.13;1.03;;;18.40;99.90;;;;;;4975669;28;20982;-80
2021/07/06 07:59:12;;;;;;;1.33;1.03;;;18.40;99.90;;;;;;4976238;28;20426;-80
2021/07/06 08:01:39;;;;;;;1.63;1.50;;;18.50;99.90;;;;;;4990230;28;20449;-80
2021/07/06 08:04:06;;;;;;;1.93;0.77;;;18.50;99.90;;;;;;4992171;28;20437;-80
2021/07/06 08:06:33;;;;;;;2.80;1.10;;;18.50;99.90;;;;;;4994866;28;20488;-80
2021/07/06 08:09:00;;;;;;;3.77;1.13;;;18.50;99.90;;;;;;4999804;28;20964;-82
2021/07/06 08:11:30;;;;;;;1.33;0.80;;;18.60;99.90;;;;;;4975169;28;20430;-81
2021/07/06 08:13:56;;;;;;;1.23;1.13;;;18.70;99.90;;;;;;4975591;28;20466;-81
2021/07/06 08:16:23;;;;;;;5.03;1.10;;;18.70;99.90;;;;;;4981558;28;20441;-81
2021/07/06 08:18:51;;;;;;;6.90;1.17;;;18.80;99.90;;;;;;5010003;28;20467;-80
2021/07/06 08:21:19;;;;;;;1.37;0.83;;;18.80;99.90;;;;;;5009921;28;20434;-82
2021/07/06 08:23:46;;;;;;;1.20;1.00;;;18.80;99.90;;;;;;4986980;28;20463;-82
2021/07/06 08:26:16;;;;;;;3.13;1.73;;;18.90;99.90;;;;;;4975562;28;20443;-78
2021/07/06 08:28:45;;;;;;;1.57;1.10;;;18.90;99.90;;;;;;4976040;28;20518;-82
2021/07/06 08:31:13;;;;;;;1.80;1.43;;;19.00;99.90;;;;;;4974699;28;20453;-82
2021/07/06 08:33:40;;;;;;;1.83;1.10;;;19.10;99.90;;;;;;4974826;28;20864;-81
2021/07/06 08:36:07;;;;;;;1.43;1.00;;;19.00;99.90;;;;;;4975388;28;20441;-82
2021/07/06 08:38:36;;;;;;;1.43;0.80;;;19.20;99.90;;;;;;4975605;28;20522;-82
2021/07/06 08:41:03;;;;;;;1.60;1.50;;;19.20;99.90;;;;;;4994841;28;20424;-81
2021/07/06 08:43:30;;;;;;;1.87;0.83;;;19.20;99.90;;;;;;4994215;28;20459;-81
2021/07/06 08:46:00;;;;;;;2.60;0.73;;;19.30;99.90;;;;;;4994724;28;20996;-80
2021/07/06 08:48:35;;;;;;;1.13;0.90;;;19.40;99.90;;;;;;4995020;28;20538;-80
2021/07/06 08:51:05;;;;;;;1.70;1.17;;;19.30;99.90;;;;;;4977276;28;20438;-80
2021/07/06 08:53:32;;;;;;;2.60;1.40;;;19.30;99.90;;;;;;5005889;28;20574;-82
2021/07/06 08:55:59;;;;;;;3.10;1.40;;;19.40;99.90;;;;;;4973937;28;20429;-81
2021/07/06 08:58:26;;;;;;;1.67;1.10;;;19.40;99.90;;;;;;4974099;28;21069;-77
2021/07/06 09:00:53;;;;;;;1.87;1.27;;;19.40;99.90;;;;;;4975080;28;20460;-81
2021/07/06 09:03:20;;;;;;;2.37;1.13;;;19.40;99.90;;;;;;4989616;28;20468;-79
2021/07/06 09:06:03;;;;;;;4.67;0.97;;;19.40;99.90;;;;;;4975038;28;20431;-80
2021/07/06 09:08:30;;;;;;;2.53;1.10;;;19.40;99.90;;;;;;4975190;28;20465;-80
2021/07/06 09:10:57;;;;;;;1.83;1.03;;;19.40;99.90;;;;;;4974990;28;20516;-78
2021/07/06 09:13:31;;;;;;;2.13;0.97;;;19.50;99.90;;;;;;4994740;28;20472;-79
2021/07/06 09:15:58;;;;;;;5.10;1.03;;;19.40;99.90;;;;;;5011784;28;20479;-78
2021/07/06 09:18:33;;;;;;;1.60;0.70;;;19.50;99.90;;;;;;4973859;28;20504;-76
2021/07/06 09:21:05;;;;;;;1.70;0.80;;;19.50;99.90;;;;;;4974729;28;20515;-79
2021/07/06 09:23:41;;;;;;;2.23;0.90;;;19.50;99.90;;;;;;4972414;28;20473;-78
2021/07/06 09:26:15;;;;;;;1.67;0.73;;;19.50;99.90;;;;;;4989360;28;20487;-80
2021/07/06 09:28:48;;;;;;;3.37;1.10;;;19.40;99.90;;;;;;4972039;28;20481;-79
2021/07/06 09:31:24;;;;;;;2.13;0.77;;;19.40;99.90;;;;;;4988750;28;20419;-76
2021/07/06 09:34:00;;;;;;;2.47;1.00;;;19.50;99.90;;;;;;4973727;28;20497;-78
2021/07/06 09:36:45;;;;;;;1.70;1.00;;;19.50;99.90;;;;;;4975906;28;20421;-77
2021/07/06 09:39:14;;;;;;;3.00;0.87;;;19.60;99.90;;;;;;5001605;28;20956;-78
2021/07/06 09:41:51;;;;;;;2.97;1.00;;;19.60;99.90;;;;;;5008100;28;20465;-79
2021/07/06 09:44:20;;;;;;;2.40;0.70;;;19.60;99.90;;;;;;4993464;28;20467;-79
2021/07/06 09:47:09;;;;;;;3.00;0.67;;;19.70;99.90;;;;;;4993036;28;20828;-77
2021/07/06 09:49:42;;;;;;;2.70;0.97;;;19.70;99.90;;;;;;4975766;28;20957;-77
2021/07/06 09:52:17;;;;;;;3.73;1.00;;;19.70;99.90;;;;;;4988302;28;20464;-79
2021/07/06 09:54:49;;;;;;;1.70;0.67;;;19.70;99.90;;;;;;4956950;28;20481;-79
2021/07/06 10:00:07;;;;;;;1.70;0.73;;;19.70;99.90;;;;;;4973938;28;20427;-78
2021/07/06 10:02:44;;;;;;;1.80;0.73;;;19.80;99.90;;;;;;4987740;28;20997;-79
2021/07/06 10:05:16;;;;;;;1.57;1.30;;;20.10;99.90;;;;;;4988240;28;20942;-78
2021/07/06 10:07:44;;;;;;;2.33;0.63;;;20.50;99.90;;;;;;4998792;28;20465;-78
2021/07/06 10:10:13;;;;;;;2.73;1.30;;;20.70;99.90;;;;;;4985785;28;20470;-80
2021/07/06 10:12:45;;;;;;;3.27;1.00;;;20.90;99.90;;;;;;4986715;28;20462;-78
2021/07/06 10:15:15;;;;;;;3.97;1.07;;;21.20;99.90;;;;;;4989522;28;20460;-78
2021/07/06 10:17:47;;;;;;;1.70;1.07;;;21.40;99.90;;;;;;4992260;28;20464;-78
2021/07/06 10:20:20;;;;;;;2.40;0.80;;;21.60;99.90;;;;;;5007935;28;20538;-78
2021/07/06 10:22:52;;;;;;;1.83;0.83;;;21.80;99.60;;;;;;4978081;28;20466;-77
2021/07/06 10:25:27;;;;;;;2.93;1.43;;;21.90;97.30;;;;;;4988272;28;20425;-75
2021/07/06 10:28:00;;;;;;;1.90;1.10;;;21.90;94.80;;;;;;4987523;28;20979;-77
2021/07/06 10:30:44;;;;;;;2.90;0.80;;;21.90;95.00;;;;;;4972376;28;20852;-77
2021/07/06 10:33:31;;;;;;;1.80;0.97;;;21.80;94.50;;;;;;4977320;28;20494;-76
2021/07/06 10:35:59;;;;;;;3.83;1.00;;;21.70;92.60;;;;;;4996258;28;20550;-77
2021/07/06 10:38:30;;;;;;;3.83;1.00;;;21.70;94.50;;;;;;4994267;28;20474;-76
2021/07/06 10:41:01;;;;;;;3.33;0.87;;;21.90;94.00;;;;;;4994300;28;20987;-78
2021/07/06 10:43:37;;;;;;;2.20;0.83;;;22.10;94.20;;;;;;5008162;28;21000;-80
2021/07/06 10:46:35;;;;;;;1.40;0.60;;;22.10;92.80;;;;;;4989421;28;20456;-75
2021/07/06 10:49:04;;;;;;;1.00;0.60;;;22.10;91.90;;;;;;4973099;28;20508;-78
2021/07/06 10:51:34;;;;;;;1.00;0.70;;;22.20;90.30;;;;;;4972954;28;20431;-78
2021/07/06 10:54:08;;;;;;;1.00;0.70;;;22.40;92.90;;;;;;4989011;28;20476;-78
2021/07/06 10:56:42;;;;;;;2.80;0.67;;;22.60;88.40;;;;;;4978696;28;20462;-77
2021/07/06 10:59:34;;;;;;;2.40;0.77;;;22.60;84.50;;;;;;4972097;28;20423;-78
2021/07/06 11:02:12;;;;;;;1.97;0.97;;;22.60;84.80;;;;;;4981637;28;20530;-78
2021/07/06 11:04:39;;;;;;;1.87;0.77;;;22.50;84.50;;;;;;4973325;28;20512;-79
2021/07/06 11:07:11;;;;;;;3.07;0.93;;;22.30;85.00;;;;;;4987513;28;20476;-75
2021/07/06 11:09:38;;;;;;;1.10;0.87;;;22.20;74.70;;;;;;4988810;28;20946;-75
2021/07/06 11:12:29;;;;;;;2.00;1.17;;;22.10;72.60;;;;;;4972410;28;20833;-77
2021/07/06 11:14:57;;;;;;;3.03;1.27;;;21.90;75.10;;;;;;4988091;28;20557;-78
2021/07/06 11:17:36;;;;;;;5.13;0.90;;;21.90;75.50;;;;;;4987101;28;20520;-77
2021/07/06 11:20:06;;;;;;;2.70;1.60;;;22.00;74.20;;;;;;4972955;28;20541;-78
2021/07/06 11:22:56;;;;;;;2.77;1.30;;;22.10;74.50;;;;;;4975421;28;20464;-78
2021/07/06 11:25:34;;;;;;;2.60;1.27;;;22.10;76.70;;;;;;4976803;28;20443;-76
2021/07/06 11:28:03;;;;;;;2.20;0.80;;;22.10;77.20;;;;;;4990716;28;20493;-79
2021/07/06 11:30:36;;;;;;;2.07;1.03;;;22.10;74.40;;;;;;5004962;28;20463;-75
2021/07/06 11:33:23;;;;;;;1.73;0.90;;;22.10;74.90;;;;;;4976001;28;20569;-77
2021/07/06 11:35:52;;;;;;;3.43;0.77;;;22.20;77.60;;;;;;4976532;28;20524;-77
2021/07/06 11:38:23;;;;;;;3.67;1.00;;;22.40;75.60;;;;;;4978662;28;20553;-77
2021/07/06 11:41:00;;;;;;;2.77;1.40;;;22.50;67.90;;;;;;4991142;28;20431;-77
2021/07/06 11:43:30;;;;;;;2.83;1.10;;;22.50;70.80;;;;;;4990902;28;21112;-79
2021/07/06 11:46:05;;;;;;;1.80;0.90;;;22.60;70.90;;;;;;4975086;28;20522;-77
2021/07/06 11:48:34;;;;;;;2.63;0.90;;;22.60;70.00;;;;;;4976077;28;20473;-77
2021/07/06 11:51:07;;;;;;;1.33;1.10;;;22.60;70.30;;;;;;4975005;28;20519;-75
2021/07/06 11:53:37;;;;;;;2.90;1.70;;;22.80;64.20;;;;;;4991464;28;21064;-76
2021/07/06 11:56:09;;;;;;;1.53;0.90;;;22.90;66.60;;;;;;4979534;28;20473;-77
2021/07/06 11:58:36;;;;;;;3.70;1.13;;;22.80;64.20;;;;;;4993487;28;21392;-77
2021/07/06 12:01:10;;;;;;;2.60;0.93;;;22.80;67.30;;;;;;4995512;28;20964;-76
2021/07/06 12:03:40;;;;;;;2.67;0.77;;;22.90;66.60;;;;;;4985216;28;20451;-75
2021/07/06 12:06:11;;;;;;;2.80;0.90;;;23.10;65.80;;;;;;4975861;28;20459;-78
2021/07/06 12:08:40;;;;;;;5.33;1.50;;;23.20;63.60;;;;;;4978418;28;20519;-75
2021/07/06 12:11:08;;;;;;;1.80;0.90;;;23.10;65.50;;;;;;4974589;28;20448;-77
2021/07/06 12:13:41;;;;;;;3.17;1.30;;;23.00;65.50;;;;;;4990030;28;20464;-77
2021/07/06 12:16:21;;;;;;;5.73;1.50;;;23.00;63.40;;;;;;4995316;28;20468;-75
2021/07/06 12:19:00;;;;;;;6.20;1.60;;;22.90;64.90;;;;;;5001770;28;20474;-79
2021/07/06 12:21:33;;;;;;;2.50;1.07;;;22.80;66.50;;;;;;4976222;28;20425;-77
2021/07/06 12:24:05;;;;;;;3.43;1.40;;;22.80;63.10;;;;;;4995628;28;20957;-75
2021/07/06 12:26:32;;;;;;;4.57;1.30;;;22.80;66.50;;;;;;4993021;28;20428;-75
2021/07/06 12:29:02;;;;;;;1.97;1.33;;;22.70;65.40;;;;;;4994856;28;20902;-76
2021/07/06 12:31:30;;;;;;;2.37;1.07;;;22.70;66.40;;;;;;4994272;28;20940;-74
2021/07/06 12:34:00;;;;;;;3.10;1.23;;;22.50;65.10;;;;;;5010657;28;20469;-77
2021/07/06 12:36:29;;;;;;;1.43;1.00;;;22.40;65.40;;;;;;5012355;28;20469;-75
2021/07/06 12:39:31;;;;;;;5.33;1.30;;;22.50;68.60;;;;;;4997101;28;20453;-76
2021/07/06 12:42:04;;;;;;;1.40;0.97;;;22.60;64.70;;;;;;4973346;28;20466;-74
2021/07/06 12:44:34;;;;;;;1.80;0.70;;;22.70;63.30;;;;;;4974166;28;21030;-75
2021/07/06 12:47:21;;;;;;;2.30;0.97;;;22.70;64.90;;;;;;4997058;28;20470;-74
2021/07/06 12:49:58;;;;;;;2.93;0.90;;;22.60;62.00;;;;;;5014526;28;20418;-75
2021/07/06 12:52:34;;;;;;;1.63;1.00;;;22.60;63.70;;;;;;4986131;28;21068;-74
2021/07/06 12:55:36;;;;;;;2.53;1.10;;;22.60;63.10;;;;;;4993849;28;20484;-75
2021/07/06 12:58:04;;;;;;;7.00;1.70;;;22.70;62.60;;;;;;4990333;28;20486;-74
2021/07/06 13:00:37;;;;;;;2.70;0.90;;;22.70;61.30;;;;;;4994563;28;20509;-76
2021/07/06 13:03:04;;;;;;;2.47;1.17;;;22.90;61.30;;;;;;5007149;28;20468;-74
2021/07/06 13:05:39;;;;;;;1.50;0.83;;;23.10;61.60;;;;;;4994299;28;20797;-76